El Dorado, AR

7:41 PM CST on March 06, 2015 (GMT -0600)
South Arkansas Regional At Goodwin | Change Station
CLOSE
Current Station
Airport
Location: El Dorado,
Elevation: 276 ft
Nearby Weather Stations
Active Advisory: Flood Warning Active Notice: Record Report

Elev 276 ft 33.22 °N, 92.81 °W | Updated 48 minutes ago

Clear
Clear
34 °F
Feels Like 34 °F
N
0
Wind Variable Wind from North

Today
High -- | Low -- °F
--% Chance of Precip.
Yesterday
High -- | Low -- °F
Precip. -- in
6:33 AM 6:12 PM
Full, 98% visible
Pressure 30.50 in
Visibility 10.0 miles
Clouds Clear
Dew Point 27 °F
Humidity 75%
Rainfall 0.00 in
Snow Depth Not available.
UV 0 out of 12
Pollen 6.60 out of 12
Air Quality Not available.
Flu Activity Not available.
METAR KELD 070053Z AUTO 00000KT 10SM CLR 01/M03 A3049 RMK AO2 SLP328 T00111028

More Conditions Fewer Conditions

Pressure 30.50 in
Visibility 10.0 miles
Clouds Clear
Dew Point 27 °F
Humidity 75%
Rainfall 0.00 in
Snow Depth Not available.
UV 0 out of 12
Pollen 6.60 out of 12
Air Quality Not available.
Flu Activity Not available.
METAR KELD 070053Z AUTO 00000KT 10SM CLR 01/M03 A3049 RMK AO2 SLP328 T00111028

More Conditions Fewer Conditions

10-Day Weather Forecast

Almanac

Astronomy

Mar. 06, 2015 Rise Set
Actual Time
Civil Twilight
Nautical Twilight
Astronomical Twilight
Moon
Length of Visible Light
Length of Day
Tomorrow will be .
, % of the Moon is Illuminated

Today's Extremes

State Highs State Lows

Community

WunderPhotos

Upload Photos

1,803,494 photos uploaded!

WunderBlogs® & News

Nearby

Air Quality

  Air Quality AQ Index Pollutant
Not available.

Snow Depth

Station Depth Elevation

Earthquake Activity

City Distance Mag. Time & Date
Minimum magnitude displayed is 2.5.

Coastal Water Temperatures

Place Temperature

Nearby Weather Stations

Flood Warning
Statement as of 7:29 PM CST on March 06, 2015

The Flood Warning continues for
the Ouachita River at Thatcher l&d.
* Until further notice... or until the warning is cancelled.
* At 6:00 PM Friday the stage was 81.6 feet.
* Minor flooding is occurring and minor flooding is forecast.
* Flood stage is 79.0 feet.
* Forecast... the river will continue rising to near 84.6 feet by
Wednesday morning.
* Impacts at 83.0 feet... access to oil and gas rigs and to Timber
is flooded. Calhoun County Road 131 is completely under water
leading to old lock 8 river access.





             Fld observed forecast 7 am
location stg stg day time Sat sun Mon Tue Wed

Ouachita River
Thatcher l 79 81.1 Fri 06 am 82.0 82.8 83.5 84.2 84.6




Lat... Lon 3311 9223 3323 9236 3329 9261 3338 9247
3333 9226 3322 9212